createdAt,value
2022-12-01T00:01:27.403Z,86.99
2022-12-01T00:03:54.662Z,87.27
2022-12-01T00:06:22.625Z,87.06
2022-12-01T00:09:14.007Z,86.55
2022-12-01T00:11:42.392Z,86.34
2022-12-01T00:14:09.654Z,86.57
2022-12-01T00:16:36.857Z,86.87
2022-12-01T00:19:04.150Z,86.83
2022-12-01T00:21:31.127Z,86.14
2022-12-01T00:23:59.366Z,86.44
2022-12-01T00:26:27.695Z,86.40
2022-12-01T00:28:58.893Z,86.88
2022-12-01T00:31:26.715Z,86.86
2022-12-01T00:33:54.154Z,86.24
2022-12-01T00:36:22.195Z,86.26
2022-12-01T00:38:54.119Z,85.73
2022-12-01T00:41:22.877Z,85.95
2022-12-01T00:43:50.779Z,85.54
2022-12-01T00:46:18.814Z,86.09
2022-12-01T00:48:46.036Z,85.35
2022-12-01T00:51:13.079Z,86.20
2022-12-01T00:53:40.951Z,86.51
2022-12-01T00:56:08.545Z,86.53
2022-12-01T00:58:35.745Z,87.11
2022-12-01T01:01:04.121Z,87.44
2022-12-01T01:03:33.006Z,86.84
2022-12-01T01:06:09.992Z,86.54
2022-12-01T01:08:37.759Z,86.49
2022-12-01T01:11:06.621Z,86.75
2022-12-01T01:13:34.957Z,87.71
2022-12-01T01:16:10.850Z,87.11
2022-12-01T01:18:38.055Z,87.84
2022-12-01T01:21:10.622Z,86.73
2022-12-01T01:23:38.478Z,86.57
2022-12-01T01:26:37.079Z,87.04
2022-12-01T01:29:07.736Z,88.21
2022-12-01T01:31:35.496Z,87.51
2022-12-01T01:34:03.435Z,88.52
2022-12-01T01:36:30.996Z,87.84
2022-12-01T01:38:58.068Z,89.09
2022-12-01T01:41:25.419Z,88.90
2022-12-01T01:43:56.859Z,89.29
2022-12-01T01:46:30.310Z,89.21
2022-12-01T01:49:10.998Z,89.31
2022-12-01T01:51:48.623Z,89.18
2022-12-01T01:54:31.811Z,89.93
2022-12-01T01:57:00.907Z,89.47
2022-12-01T01:59:35.195Z,89.24
2022-12-01T02:02:13.273Z,89.03
2022-12-01T02:04:57.190Z,90.18
2022-12-01T02:07:25.434Z,89.58
2022-12-01T02:09:53.990Z,89.18
2022-12-01T02:12:54.568Z,90.03
2022-12-01T02:15:55.956Z,89.31
2022-12-01T02:18:32.008Z,90.18
2022-12-01T02:21:29.975Z,89.94
2022-12-01T02:24:41.814Z,90.18
2022-12-01T02:27:36.527Z,90.31
2022-12-01T02:30:07.810Z,91.31
2022-12-01T02:33:11.181Z,91.10
2022-12-01T02:35:43.989Z,90.68
2022-12-01T02:38:17.017Z,90.26
2022-12-01T02:40:54.562Z,91.04
2022-12-01T02:43:32.583Z,90.64
2022-12-01T02:46:09.793Z,91.05
2022-12-01T02:48:43.114Z,89.83
2022-12-01T02:51:18.395Z,91.58
2022-12-01T02:53:46.122Z,90.99
2022-12-01T02:56:16.121Z,90.32
2022-12-01T02:58:44.394Z,91.10
2022-12-01T03:01:12.059Z,90.35
2022-12-01T03:04:02.959Z,90.99
2022-12-01T03:06:56.386Z,91.63
2022-12-01T03:10:12.148Z,91.62
2022-12-01T03:13:23.189Z,91.50
2022-12-01T03:16:14.204Z,91.71
2022-12-01T03:18:53.470Z,91.11
2022-12-01T03:21:34.622Z,90.94
2022-12-01T03:24:11.908Z,90.91
2022-12-01T03:26:42.098Z,90.44
2022-12-01T03:29:15.995Z,90.78
2022-12-01T03:31:50.976Z,91.04
2022-12-01T03:34:49.997Z,90.66
2022-12-01T03:37:28.366Z,91.65
2022-12-01T03:40:00.588Z,90.86
2022-12-01T03:42:37.644Z,90.60
2022-12-01T03:45:16.773Z,90.99
2022-12-01T03:47:44.574Z,91.16
2022-12-01T03:50:14.266Z,91.12
2022-12-01T03:53:02.335Z,91.44
2022-12-01T03:55:32.870Z,91.67
2022-12-01T03:58:11.154Z,91.72
2022-12-01T04:00:39.119Z,90.58
2022-12-01T04:03:06.545Z,91.43
2022-12-01T04:05:35.372Z,91.35
2022-12-01T04:08:02.796Z,91.81
2022-12-01T04:10:29.885Z,91.74
2022-12-01T04:12:59.733Z,91.94
2022-12-01T04:15:29.614Z,91.53
2022-12-01T04:17:56.675Z,91.08
2022-12-01T04:20:23.765Z,91.21
2022-12-01T04:22:50.949Z,90.74
2022-12-01T04:25:18.072Z,91.36
2022-12-01T04:27:45.127Z,91.38
2022-12-01T04:30:12.905Z,91.34
2022-12-01T04:32:43.942Z,91.55
2022-12-01T04:35:13.078Z,91.55
2022-12-01T04:37:41.079Z,91.62
2022-12-01T04:40:09.488Z,91.22
2022-12-01T04:42:36.801Z,91.68
2022-12-01T04:45:04.444Z,91.93
2022-12-01T04:47:31.478Z,91.58
2022-12-01T04:49:58.498Z,91.19
2022-12-01T04:52:27.462Z,90.81
2022-12-01T04:54:58.004Z,91.54
2022-12-01T04:57:25.342Z,91.40
2022-12-01T04:59:52.554Z,90.84
2022-12-01T05:02:19.771Z,90.59
2022-12-01T05:04:48.270Z,91.41
2022-12-01T05:07:15.595Z,91.69
2022-12-01T05:09:42.648Z,91.41
2022-12-01T05:12:09.613Z,91.37
2022-12-01T05:14:36.663Z,91.87
2022-12-01T05:17:03.795Z,91.42
2022-12-01T05:19:49.439Z,91.03
2022-12-01T05:22:16.743Z,90.89
2022-12-01T05:24:44.685Z,91.42
2022-12-01T05:27:11.861Z,92.03
2022-12-01T05:29:39.469Z,92.08
2022-12-01T05:32:06.727Z,91.85
2022-12-01T05:34:33.842Z,92.14
2022-12-01T05:37:00.960Z,92.62
2022-12-01T05:39:28.335Z,91.85
2022-12-01T05:41:55.592Z,92.25
2022-12-01T05:44:22.654Z,91.58
2022-12-01T05:46:49.797Z,91.85
2022-12-01T05:49:17.392Z,91.32
2022-12-01T05:51:44.776Z,91.66
2022-12-01T05:54:11.767Z,91.62
2022-12-01T05:56:38.930Z,91.94
2022-12-01T05:59:06.416Z,92.67
2022-12-01T06:01:34.123Z,92.96
2022-12-01T06:04:01.752Z,92.44
2022-12-01T06:06:28.893Z,93.14
2022-12-01T06:08:55.943Z,93.07
2022-12-01T06:11:27.164Z,92.79
2022-12-01T06:13:54.238Z,92.86
2022-12-01T06:16:21.372Z,92.42
2022-12-01T06:18:48.472Z,92.45
2022-12-01T06:21:15.467Z,93.18
2022-12-01T06:23:42.523Z,92.75
2022-12-01T06:26:09.802Z,92.92
2022-12-01T06:28:36.918Z,91.87
2022-12-01T06:31:04.245Z,92.60
2022-12-01T06:33:32.830Z,91.68
2022-12-01T06:36:03.989Z,93.05
2022-12-01T06:38:34.109Z,92.99
2022-12-01T06:41:01.707Z,92.98
2022-12-01T06:43:29.962Z,92.63
2022-12-01T06:46:01.693Z,92.33
2022-12-01T06:48:30.089Z,92.79
2022-12-01T06:51:01.777Z,92.45
2022-12-01T06:53:29.706Z,92.38
2022-12-01T06:56:02.097Z,92.31
2022-12-01T06:58:30.348Z,92.62
2022-12-01T07:00:59.372Z,93.31
2022-12-01T07:03:27.198Z,93.00
2022-12-01T07:06:01.992Z,92.97
2022-12-01T07:08:31.162Z,92.61
2022-12-01T07:11:08.319Z,93.25
2022-12-01T07:13:40.030Z,93.36
2022-12-01T07:16:08.804Z,94.07
2022-12-01T07:18:38.693Z,93.20
2022-12-01T07:21:08.715Z,93.35
2022-12-01T07:23:36.752Z,92.73
2022-12-01T07:26:07.697Z,93.58
2022-12-01T07:28:34.741Z,93.13
2022-12-01T07:31:22.077Z,92.53
2022-12-01T07:33:49.263Z,92.57
2022-12-01T07:36:16.421Z,92.64
2022-12-01T07:38:43.718Z,92.65
2022-12-01T07:41:15.102Z,92.13
2022-12-01T07:43:43.311Z,92.69
2022-12-01T07:46:22.270Z,93.43
2022-12-01T07:48:51.780Z,92.38
2022-12-01T07:51:19.490Z,92.81
2022-12-01T07:53:49.444Z,92.90
2022-12-01T07:56:17.926Z,93.38
2022-12-01T07:58:45.712Z,92.79
2022-12-01T08:01:17.763Z,93.52
2022-12-01T08:03:45.340Z,93.46
2022-12-01T08:06:12.722Z,93.21
2022-12-01T08:08:41.450Z,93.20
2022-12-01T08:11:23.569Z,93.32
2022-12-01T08:13:53.785Z,92.58
2022-12-01T08:16:23.724Z,93.32
2022-12-01T08:18:51.082Z,93.97
2022-12-01T08:21:21.192Z,93.13
2022-12-01T08:23:51.907Z,93.39
2022-12-01T08:26:20.539Z,93.53
2022-12-01T08:28:48.764Z,93.71
2022-12-01T08:31:27.687Z,93.82
2022-12-01T08:33:55.129Z,93.87
2022-12-01T08:36:23.292Z,93.90
2022-12-01T08:38:54.162Z,94.47
2022-12-01T08:41:22.078Z,92.91
2022-12-01T08:43:58.056Z,92.67
2022-12-01T08:46:28.960Z,93.70
2022-12-01T08:48:57.664Z,93.53
2022-12-01T08:51:28.263Z,93.49
2022-12-01T08:53:57.866Z,94.74
2022-12-01T08:56:32.988Z,93.75
2022-12-01T08:59:00.428Z,94.37
2022-12-01T09:01:28.854Z,94.08
2022-12-01T09:04:08.962Z,93.35
2022-12-01T09:06:44.988Z,93.37
2022-12-01T09:09:24.977Z,92.67
2022-12-01T09:11:52.855Z,92.66
2022-12-01T09:14:21.612Z,92.70
2022-12-01T09:16:50.508Z,94.30
2022-12-01T09:19:24.076Z,94.25
2022-12-01T09:21:52.493Z,93.99
2022-12-01T09:24:19.669Z,94.13
2022-12-01T09:26:47.276Z,93.87
2022-12-01T09:29:16.905Z,94.16
2022-12-01T09:31:44.181Z,93.74
2022-12-01T09:34:17.074Z,93.62
2022-12-01T09:36:45.306Z,94.23
2022-12-01T09:39:15.533Z,94.03
2022-12-01T09:41:45.562Z,93.82
2022-12-01T09:44:29.023Z,93.73
2022-12-01T09:47:08.991Z,94.04
2022-12-01T09:49:56.686Z,93.49
2022-12-01T09:52:27.213Z,94.34
2022-12-01T09:54:56.367Z,94.15
2022-12-01T09:57:36.818Z,93.57
2022-12-01T10:00:26.412Z,93.55
2022-12-01T10:03:25.516Z,93.81
2022-12-01T10:06:25.904Z,94.21
2022-12-01T10:08:58.488Z,94.90
2022-12-01T10:11:40.634Z,94.46
2022-12-01T10:14:20.021Z,94.09
2022-12-01T10:17:33.145Z,94.09
2022-12-01T10:20:22.867Z,94.19
2022-12-01T10:23:29.394Z,94.98
2022-12-01T10:26:07.538Z,94.05
2022-12-01T10:29:00.653Z,94.29
2022-12-01T10:31:45.005Z,94.91
2022-12-01T10:34:38.088Z,95.25
2022-12-01T10:37:06.305Z,94.60
2022-12-01T10:39:43.783Z,95.39
2022-12-01T10:42:36.382Z,95.24
2022-12-01T10:45:10.618Z,94.61
2022-12-01T10:47:37.605Z,94.73
2022-12-01T10:50:05.352Z,94.87
2022-12-01T10:52:33.934Z,95.98
2022-12-01T10:55:03.145Z,95.05
2022-12-01T10:57:32.040Z,94.96
2022-12-01T11:00:07.407Z,94.25
2022-12-01T11:02:37.157Z,94.47
2022-12-01T11:05:18.812Z,95.28
2022-12-01T11:07:47.814Z,95.63
2022-12-01T11:10:42.478Z,95.25
2022-12-01T11:13:29.904Z,95.21
2022-12-01T11:16:00.526Z,96.11
2022-12-01T11:18:37.631Z,95.51
2022-12-01T11:21:28.916Z,94.77
2022-12-01T11:23:56.848Z,95.00
2022-12-01T11:26:30.716Z,95.32
2022-12-01T11:29:01.001Z,94.37
2022-12-01T11:31:41.667Z,95.32
2022-12-01T11:34:19.612Z,94.69
2022-12-01T11:36:53.518Z,95.35
2022-12-01T11:39:32.547Z,94.67
2022-12-01T11:42:26.085Z,94.27
2022-12-01T11:45:00.798Z,95.09
2022-12-01T11:47:28.717Z,94.86
2022-12-01T11:50:02.916Z,94.76
2022-12-01T11:52:36.644Z,93.84
2022-12-01T11:55:26.462Z,94.03
2022-12-01T11:57:58.169Z,95.51
2022-12-01T12:00:46.073Z,94.84
2022-12-01T12:03:19.060Z,94.83
2022-12-01T12:06:38.488Z,95.34
2022-12-01T12:09:52.007Z,95.84
2022-12-01T12:12:35.595Z,95.67
2022-12-01T12:15:17.682Z,95.00
2022-12-01T12:18:14.276Z,95.23
2022-12-01T12:20:47.027Z,94.88
2022-12-01T12:23:42.744Z,95.03
2022-12-01T12:26:34.987Z,94.15
2022-12-01T12:29:35.207Z,94.26
2022-12-01T12:32:34.315Z,94.28
2022-12-01T12:35:25.289Z,93.47
2022-12-01T12:38:36.750Z,93.30
2022-12-01T12:41:23.024Z,94.21
2022-12-01T12:44:13.004Z,94.58
2022-12-01T12:47:05.328Z,93.54
2022-12-01T12:49:39.825Z,93.53
2022-12-01T12:52:17.960Z,94.45
2022-12-01T12:54:55.071Z,93.90
2022-12-01T12:57:30.525Z,94.58
2022-12-01T13:00:04.179Z,94.12
2022-12-01T13:03:08.445Z,93.79
2022-12-01T13:06:07.313Z,93.57
2022-12-01T13:08:53.707Z,93.92
2022-12-01T13:11:33.626Z,93.13
2022-12-01T13:14:24.933Z,92.92
2022-12-01T13:16:58.450Z,93.65
2022-12-01T13:19:36.686Z,92.75
2022-12-01T13:22:07.208Z,92.87
2022-12-01T13:24:34.654Z,93.34
2022-12-01T13:27:11.144Z,92.15
2022-12-01T13:29:48.932Z,92.77
2022-12-01T13:32:37.502Z,92.93
2022-12-01T13:35:31.620Z,93.19
2022-12-01T13:38:25.429Z,92.75
2022-12-01T13:41:31.015Z,93.00
2022-12-01T13:44:22.787Z,93.14
2022-12-01T13:47:12.253Z,93.15
2022-12-01T13:49:51.606Z,92.64
2022-12-01T13:52:21.844Z,93.00
2022-12-01T13:55:09.998Z,92.37
2022-12-01T13:57:45.108Z,92.93
2022-12-01T14:00:30.516Z,92.18
2022-12-01T14:03:37.539Z,92.40
2022-12-01T14:06:22.045Z,92.67
2022-12-01T14:08:50.857Z,92.36
2022-12-01T14:11:29.698Z,92.00
2022-12-01T14:14:12.233Z,92.58
2022-12-01T14:16:50.473Z,92.48
2022-12-01T14:19:37.369Z,92.00
2022-12-01T14:22:06.786Z,91.53
2022-12-01T14:24:41.814Z,91.64
2022-12-01T14:27:14.371Z,92.12
2022-12-01T14:29:43.281Z,92.37
2022-12-01T14:32:10.296Z,91.89
2022-12-01T14:34:38.523Z,92.09
2022-12-01T14:37:13.379Z,91.13
2022-12-01T14:39:57.270Z,92.18
2022-12-01T14:42:52.803Z,91.82
2022-12-01T14:45:53.061Z,91.89
2022-12-01T14:48:31.983Z,92.04
2022-12-01T14:51:35.180Z,92.00
2022-12-01T14:54:10.359Z,92.21
2022-12-01T14:56:37.809Z,91.66
2022-12-01T14:59:21.963Z,91.94
2022-12-01T15:01:53.376Z,92.08
2022-12-01T15:04:20.551Z,92.26
2022-12-01T15:06:56.514Z,92.21
2022-12-01T15:09:35.487Z,92.48
2022-12-01T15:12:07.735Z,92.49
2022-12-01T15:14:48.798Z,92.27
2022-12-01T15:17:31.289Z,92.05
2022-12-01T15:19:58.955Z,92.31
2022-12-01T15:22:31.705Z,92.42
2022-12-01T15:25:15.247Z,91.88
2022-12-01T15:27:44.052Z,92.10
2022-12-01T15:30:19.206Z,92.50
2022-12-01T15:32:46.789Z,92.29
2022-12-01T15:35:22.000Z,91.92
2022-12-01T15:37:51.596Z,92.01
2022-12-01T15:41:06.282Z,91.61
2022-12-01T15:43:21.966Z,91.88
2022-12-01T15:45:57.909Z,91.69
2022-12-01T15:48:34.406Z,91.82
2022-12-01T15:51:19.381Z,91.14
2022-12-01T15:53:53.968Z,91.57
2022-12-01T15:56:36.885Z,91.68
2022-12-01T15:59:15.435Z,91.81
2022-12-01T16:01:44.603Z,91.75
2022-12-01T16:04:22.495Z,91.99
2022-12-01T16:07:09.134Z,91.93
2022-12-01T16:09:57.050Z,91.85
2022-12-01T16:12:36.871Z,92.26
2022-12-01T16:15:18.486Z,91.69
2022-12-01T16:17:52.664Z,92.21
2022-12-01T16:20:32.205Z,91.55
2022-12-01T16:23:03.361Z,91.30
2022-12-01T16:25:38.703Z,91.92
2022-12-01T16:28:27.890Z,92.11
2022-12-01T16:30:55.112Z,91.52
2022-12-01T16:33:26.566Z,91.82
2022-12-01T16:35:54.770Z,91.37
2022-12-01T16:38:25.264Z,91.97
2022-12-01T16:41:01.662Z,91.81
2022-12-01T16:43:29.775Z,92.26
2022-12-01T16:46:06.689Z,91.85
2022-12-01T16:48:35.100Z,91.61
2022-12-01T16:51:05.298Z,92.23
2022-12-01T16:53:32.379Z,91.48
2022-12-01T16:56:03.426Z,91.93
2022-12-01T16:58:31.315Z,91.97
2022-12-01T17:00:59.123Z,92.36
2022-12-01T17:03:28.293Z,92.87
2022-12-01T17:05:55.656Z,92.00
2022-12-01T17:08:23.275Z,92.33
2022-12-01T17:10:52.166Z,91.81
2022-12-01T17:13:23.506Z,91.49
2022-12-01T17:15:54.150Z,91.46
2022-12-01T17:18:23.208Z,92.01
2022-12-01T17:21:02.419Z,91.57
2022-12-01T17:23:29.903Z,92.49
2022-12-01T17:25:57.272Z,92.03
2022-12-01T17:28:24.486Z,91.66
2022-12-01T17:30:51.649Z,91.31
2022-12-01T17:33:18.989Z,91.92
2022-12-01T17:35:46.064Z,91.51
2022-12-01T17:38:13.130Z,91.92
2022-12-01T17:40:40.174Z,91.88
2022-12-01T17:43:08.605Z,92.42
2022-12-01T17:45:41.945Z,92.07
2022-12-01T17:48:09.155Z,91.94
2022-12-01T17:50:38.064Z,91.64
2022-12-01T17:53:05.052Z,91.99
2022-12-01T17:55:32.143Z,91.34
2022-12-01T17:57:59.317Z,91.70
2022-12-01T18:00:26.688Z,92.09
2022-12-01T18:02:53.933Z,92.43
2022-12-01T18:05:21.043Z,92.11
2022-12-01T18:07:48.417Z,91.91
2022-12-01T18:10:15.760Z,92.04
2022-12-01T18:12:42.858Z,91.72
2022-12-01T18:15:11.064Z,92.26
2022-12-01T18:17:38.565Z,91.44
2022-12-01T18:20:07.661Z,91.97
2022-12-01T18:22:34.708Z,92.12
2022-12-01T18:25:01.746Z,91.72
2022-12-01T18:27:30.497Z,91.94
2022-12-01T18:29:57.562Z,91.74
2022-12-01T18:32:24.604Z,92.05
2022-12-01T18:34:52.069Z,91.25
2022-12-01T18:37:19.330Z,92.38
2022-12-01T18:39:46.495Z,91.63
2022-12-01T18:42:13.547Z,91.25
2022-12-01T18:44:42.320Z,91.81
2022-12-01T18:47:09.744Z,91.26
2022-12-01T18:49:36.798Z,91.45
2022-12-01T18:52:04.910Z,91.35
2022-12-01T18:54:32.143Z,91.32
2022-12-01T18:56:59.449Z,91.95
2022-12-01T18:59:27.183Z,91.40
2022-12-01T19:01:55.214Z,91.69
2022-12-01T19:04:23.879Z,91.67
2022-12-01T19:06:51.277Z,91.71
2022-12-01T19:09:18.488Z,91.08
2022-12-01T19:11:46.149Z,92.26
2022-12-01T19:14:17.697Z,92.02
2022-12-01T19:16:46.962Z,91.34
2022-12-01T19:19:14.204Z,91.85
2022-12-01T19:21:42.928Z,91.62
2022-12-01T19:24:10.158Z,91.42
2022-12-01T19:26:37.486Z,91.42
2022-12-01T19:29:05.335Z,91.37
2022-12-01T19:31:32.596Z,91.02
2022-12-01T19:34:03.740Z,91.12
2022-12-01T19:36:31.578Z,91.14
2022-12-01T19:39:00.632Z,91.65
2022-12-01T19:41:29.697Z,91.72
2022-12-01T19:43:58.085Z,91.29
2022-12-01T19:46:27.675Z,91.22
2022-12-01T19:49:00.201Z,91.52
2022-12-01T19:51:37.654Z,91.13
2022-12-01T19:54:08.094Z,91.89
2022-12-01T19:56:35.429Z,92.02
2022-12-01T19:59:03.243Z,91.34
2022-12-01T20:01:31.011Z,91.42
2022-12-01T20:03:58.189Z,92.39
2022-12-01T20:06:29.782Z,92.00
2022-12-01T20:09:01.095Z,91.98
2022-12-01T20:11:35.512Z,91.24
2022-12-01T20:14:05.035Z,91.72
2022-12-01T20:16:32.435Z,90.70
2022-12-01T20:19:04.858Z,91.26
2022-12-01T20:21:39.753Z,90.53
2022-12-01T20:24:10.507Z,90.85
2022-12-01T20:26:45.042Z,90.15
2022-12-01T20:29:30.068Z,91.04
2022-12-01T20:31:59.868Z,92.13
2022-12-01T20:34:36.471Z,91.97
2022-12-01T20:37:04.520Z,91.40
2022-12-01T20:39:34.678Z,91.78
2022-12-01T20:42:02.729Z,91.82
2022-12-01T20:44:31.309Z,91.48
2022-12-01T20:46:58.452Z,91.41
2022-12-01T20:49:26.387Z,91.89
2022-12-01T20:51:53.832Z,90.74
2022-12-01T20:54:29.783Z,91.47
2022-12-01T20:56:59.691Z,91.11
2022-12-01T20:59:28.129Z,91.40
2022-12-01T21:01:56.175Z,91.43
2022-12-01T21:04:23.713Z,91.25
2022-12-01T21:06:58.816Z,90.54
2022-12-01T21:09:28.186Z,90.78
2022-12-01T21:12:17.713Z,91.04
2022-12-01T21:14:49.281Z,91.05
2022-12-01T21:17:34.716Z,90.44
2022-12-01T21:20:22.103Z,91.59
2022-12-01T21:22:50.506Z,90.32
2022-12-01T21:25:24.058Z,91.10
2022-12-01T21:27:52.150Z,90.90
2022-12-01T21:30:25.007Z,90.18
2022-12-01T21:32:52.502Z,91.04
2022-12-01T21:35:24.986Z,90.71
2022-12-01T21:38:00.705Z,90.25
2022-12-01T21:40:30.957Z,90.15
2022-12-01T21:43:16.959Z,90.47
2022-12-01T21:45:44.282Z,90.22
2022-12-01T21:48:23.495Z,90.71
2022-12-01T21:51:02.133Z,90.38
2022-12-01T21:53:38.440Z,89.54
2022-12-01T21:56:05.952Z,90.19
2022-12-01T21:58:37.134Z,90.40
2022-12-01T22:01:19.932Z,90.49
2022-12-01T22:03:47.728Z,90.92
2022-12-01T22:06:30.313Z,89.51
2022-12-01T22:09:34.779Z,90.04
2022-12-01T22:12:12.987Z,89.97
2022-12-01T22:14:40.099Z,90.11
2022-12-01T22:17:07.159Z,89.59
2022-12-01T22:19:37.191Z,89.87
2022-12-01T22:22:16.283Z,90.08
2022-12-01T22:24:49.845Z,90.40
2022-12-01T22:27:39.273Z,89.84
2022-12-01T22:30:06.413Z,90.06
2022-12-01T22:33:05.124Z,89.82
2022-12-01T22:35:48.320Z,90.23
2022-12-01T22:38:37.598Z,90.43
2022-12-01T22:41:14.037Z,90.11
2022-12-01T22:43:50.314Z,89.71
2022-12-01T22:46:32.598Z,90.91
2022-12-01T22:49:22.429Z,90.96
2022-12-01T22:52:01.571Z,90.74
2022-12-01T22:54:33.232Z,90.23
2022-12-01T22:57:03.438Z,91.23
2022-12-01T22:59:38.029Z,90.76
2022-12-01T23:02:21.514Z,91.17
2022-12-01T23:05:01.539Z,91.10
2022-12-01T23:07:35.725Z,90.82
2022-12-01T23:10:12.918Z,91.04
2022-12-01T23:12:40.733Z,91.82
2022-12-01T23:15:35.465Z,91.09
2022-12-01T23:18:22.793Z,91.47
2022-12-01T23:20:56.612Z,91.08
2022-12-01T23:23:36.004Z,91.05
2022-12-01T23:26:07.896Z,91.06
2022-12-01T23:28:37.321Z,91.59
2022-12-01T23:31:05.198Z,91.81
2022-12-01T23:33:34.270Z,90.98
2022-12-01T23:36:20.732Z,91.64
2022-12-01T23:38:52.192Z,92.17
2022-12-01T23:41:33.133Z,92.08
2022-12-01T23:44:18.928Z,91.64
2022-12-01T23:46:48.081Z,91.16
2022-12-01T23:49:20.483Z,90.81
2022-12-01T23:51:51.652Z,91.21
2022-12-01T23:54:32.439Z,90.55
2022-12-01T23:57:11.717Z,91.58
2022-12-01T23:59:38.960Z,91.26
